DAOR/CBH METAR and TAF weather

Enter ICAO airport designator
Station Type Date Time Source
DAOR METAR 2020/09/22 00:00 UTC NOAA

DAOR 220000Z 23005KT CAVOK 29/09 Q1016


Station Type Date Time Source
DAOR Decoded METAR 2020/09/22 00:00 UTC NOAA

Bechar, Algeria (DAOR) 31-37N 002-14W 773M
Sep 21, 2020 - 08:00 PM EDT / 2020.09.22 0000 UTC
Wind: from the SW (230 degrees) at 6 MPH (5 KT):0
Visibility: greater than 7 mile(s):0
Temperature: 84 F (29 C)
Dew Point: 48 F (9 C)
Relative Humidity: 28%
Pressure (altimeter): 30.00 in. Hg (1016 hPa)
ob: DAOR 220000Z 23005KT CAVOK 29/09 Q1016
cycle: 0

Station Type Date Time Source
DAOR TAF 2017/11/09 18:03 UTC NOAA

TAF DAOR 091700Z 0918/1009 35010KT 6000 FEW033 SCT100
TEMPO 0918/0924 3000 BLSA PROB40
TEMPO 0918/0924 35020G35KT 2000 -TSRA FEW030CB

Example: see airport list